Time;durP1;ratioP1;P1;durP2;ratioP2;P2;SDS_P1;SDS_P2;PMS_P1;PMS_P2;Temp;Humidity;BMP_temperature;BMP_pressure;BME280_temperature;BME280_humidity;BME280_pressure;Samples;Min_cycle;Max_cycle;Signal;HPM_P1;HPM_P2
2022/07/20 00:00:39;;;;;;;6.07;4.67;;;28.70;31.80;;;;;;4993988;28;20957;-90
2022/07/20 00:03:07;;;;;;;6.53;4.60;;;28.70;31.70;;;;;;4995425;28;20163;-90
2022/07/20 00:05:33;;;;;;;8.03;4.90;;;28.70;32.00;;;;;;4995697;28;20422;-90
2022/07/20 00:07:59;;;;;;;5.50;4.50;;;28.60;31.60;;;;;;4993914;28;20506;-89
2022/07/20 00:13:09;;;;;;;5.20;4.70;;;28.60;31.40;;;;;;4976459;28;20287;-90
2022/07/20 00:15:35;;;;;;;10.97;10.00;;;28.50;31.40;;;;;;4974368;28;20995;-89
2022/07/20 00:18:01;;;;;;;8.13;6.63;;;28.50;32.00;;;;;;4974446;28;20820;-89
2022/07/20 00:20:27;;;;;;;4.97;4.57;;;28.50;32.20;;;;;;4974840;28;20416;-89
2022/07/20 00:22:53;;;;;;;6.40;5.17;;;28.50;31.90;;;;;;4975525;28;20605;-90
2022/07/20 00:25:19;;;;;;;7.23;4.40;;;28.50;32.90;;;;;;4981966;28;20687;-89
2022/07/20 00:27:45;;;;;;;10.97;4.87;;;28.40;31.70;;;;;;4995682;28;20226;-90
2022/07/20 00:30:11;;;;;;;6.17;5.30;;;28.40;31.80;;;;;;4989282;28;20800;-90
2022/07/20 00:32:38;;;;;;;5.60;5.10;;;28.40;31.80;;;;;;4982900;28;20206;-91
2022/07/20 00:35:09;;;;;;;5.50;4.90;;;28.40;31.70;;;;;;4975596;28;20870;-89
2022/07/20 00:37:35;;;;;;;7.23;5.60;;;28.40;31.80;;;;;;4978998;28;20469;-90
2022/07/20 00:40:01;;;;;;;16.60;9.23;;;28.40;32.10;;;;;;4987995;28;20827;-90
2022/07/20 00:42:26;;;;;;;16.97;10.40;;;28.40;33.60;;;;;;4977483;28;20180;-90
2022/07/20 00:44:52;;;;;;;15.23;12.50;;;28.40;35.10;;;;;;4978259;28;20446;-90
2022/07/20 00:47:18;;;;;;;20.03;13.57;;;28.40;35.90;;;;;;4993352;28;20273;-90
2022/07/20 00:49:44;;;;;;;19.70;14.43;;;28.30;36.80;;;;;;4995033;28;20210;-90
2022/07/20 00:52:09;;;;;;;22.23;15.40;;;28.30;37.30;;;;;;4995663;28;20227;-90
2022/07/20 00:54:36;;;;;;;20.37;16.10;;;28.30;38.30;;;;;;4976677;28;20237;-90
2022/07/20 00:57:02;;;;;;;19.10;17.20;;;28.20;39.60;;;;;;4974191;28;20185;-89
2022/07/20 00:59:28;;;;;;;29.97;19.87;;;28.20;40.50;;;;;;4985235;28;20429;-89
2022/07/20 01:01:54;;;;;;;26.37;19.33;;;28.00;41.40;;;;;;4992114;28;20183;-89
2022/07/20 01:04:20;;;;;;;24.03;19.33;;;28.00;42.70;;;;;;4991649;28;20445;-90
2022/07/20 01:06:46;;;;;;;30.57;22.53;;;27.90;43.30;;;;;;4991712;28;20969;-90
2022/07/20 01:09:11;;;;;;;27.03;20.43;;;27.80;44.20;;;;;;4991810;28;20497;-90
2022/07/20 01:11:37;;;;;;;27.03;23.47;;;27.80;44.80;;;;;;4985709;28;20214;-89
2022/07/20 01:14:05;;;;;;;29.13;23.73;;;27.70;45.50;;;;;;4972247;28;20618;-89
2022/07/20 01:16:31;;;;;;;33.67;28.03;;;27.70;46.90;;;;;;4972581;28;20187;-89
2022/07/20 01:18:57;;;;;;;36.90;26.70;;;27.60;47.70;;;;;;4974012;28;20431;-90
2022/07/20 01:21:23;;;;;;;30.27;25.90;;;27.50;48.40;;;;;;4972813;28;20441;-90
2022/07/20 01:23:48;;;;;;;34.90;26.87;;;27.40;48.70;;;;;;4972852;28;20218;-90
2022/07/20 01:26:19;;;;;;;31.30;26.17;;;27.40;49.10;;;;;;4973217;28;20327;-90
2022/07/20 01:28:45;;;;;;;30.57;25.80;;;27.30;50.40;;;;;;4974103;28;20267;-90
2022/07/20 01:31:12;;;;;;;33.70;28.80;;;27.30;49.90;;;;;;4972340;28;20470;-90
2022/07/20 01:33:37;;;;;;;35.43;26.23;;;27.20;50.00;;;;;;4973930;28;20438;-90
2022/07/20 01:36:03;;;;;;;35.90;29.33;;;27.20;50.30;;;;;;4972919;28;20415;-90
2022/07/20 01:38:29;;;;;;;34.00;26.40;;;27.20;50.50;;;;;;4972156;28;20427;-90
2022/07/20 01:40:55;;;;;;;33.47;29.67;;;27.10;50.70;;;;;;4973935;28;20415;-90
2022/07/20 01:43:20;;;;;;;41.50;28.67;;;27.10;50.80;;;;;;4972070;28;20183;-90
2022/07/20 01:45:46;;;;;;;35.20;27.73;;;27.00;51.10;;;;;;4972317;28;20183;-90
2022/07/20 01:48:12;;;;;;;32.67;28.80;;;27.00;51.20;;;;;;4972173;28;20212;-90
2022/07/20 01:50:39;;;;;;;37.87;27.77;;;26.90;51.00;;;;;;4972364;28;20186;-90
2022/07/20 01:53:06;;;;;;;32.00;26.17;;;26.90;51.20;;;;;;4972074;28;20431;-90
2022/07/20 01:55:31;;;;;;;35.27;27.90;;;26.80;51.30;;;;;;4972317;28;20450;-90
2022/07/20 01:57:57;;;;;;;39.50;30.17;;;26.80;51.50;;;;;;4974296;28;20425;-91
2022/07/20 02:00:23;;;;;;;32.50;26.60;;;26.80;51.70;;;;;;4977788;28;20668;-90
2022/07/20 02:02:49;;;;;;;33.97;27.10;;;26.80;51.60;;;;;;4998161;28;20186;-91
2022/07/20 02:05:16;;;;;;;34.30;29.80;;;26.70;51.70;;;;;;4980525;28;20458;-90
2022/07/20 02:07:42;;;;;;;30.57;27.20;;;26.70;52.00;;;;;;4976990;28;20463;-91
2022/07/20 02:10:10;;;;;;;33.40;27.03;;;26.60;52.10;;;;;;4975735;28;20423;-90
2022/07/20 02:12:36;;;;;;;34.53;27.13;;;26.60;52.30;;;;;;4975603;28;20422;-90
2022/07/20 02:15:03;;;;;;;38.60;29.57;;;26.60;52.40;;;;;;4975342;28;20964;-90
2022/07/20 02:17:29;;;;;;;33.50;26.93;;;26.60;52.50;;;;;;4975223;28;20454;-90
2022/07/20 02:19:55;;;;;;;36.10;27.70;;;26.50;52.30;;;;;;4975485;28;20415;-91
2022/07/20 02:22:21;;;;;;;36.93;29.03;;;26.40;52.70;;;;;;4975521;28;20186;-90
2022/07/20 02:24:46;;;;;;;37.20;29.30;;;26.40;52.70;;;;;;4975285;28;20199;-90
2022/07/20 02:27:12;;;;;;;36.10;27.90;;;26.40;52.70;;;;;;4975196;28;20203;-90
2022/07/20 02:29:38;;;;;;;30.90;26.77;;;26.40;52.70;;;;;;4975511;28;20743;-90
2022/07/20 02:32:04;;;;;;;34.50;27.37;;;26.40;52.80;;;;;;4975644;28;20497;-90
2022/07/20 02:34:30;;;;;;;35.13;26.60;;;26.40;52.80;;;;;;4976406;28;20195;-90
2022/07/20 02:36:55;;;;;;;32.03;27.93;;;26.30;52.90;;;;;;4975615;28;20426;-90
2022/07/20 02:39:21;;;;;;;34.00;27.80;;;26.30;53.70;;;;;;4976399;28;20590;-90
2022/07/20 02:41:47;;;;;;;31.47;26.87;;;26.30;53.20;;;;;;4975141;28;20182;-90
2022/07/20 02:44:13;;;;;;;30.00;25.80;;;26.30;53.20;;;;;;4975005;28;20209;-90
2022/07/20 02:46:39;;;;;;;37.20;27.10;;;26.20;53.30;;;;;;4974843;28;20558;-90
2022/07/20 02:49:06;;;;;;;33.03;27.10;;;26.20;53.20;;;;;;4975035;28;20436;-90
2022/07/20 02:51:32;;;;;;;33.80;27.57;;;26.20;53.30;;;;;;4974629;28;20186;-90
2022/07/20 02:53:58;;;;;;;37.60;27.90;;;26.10;53.30;;;;;;4977060;28;20447;-91
2022/07/20 02:56:24;;;;;;;30.13;26.23;;;26.10;53.30;;;;;;4975179;28;20179;-90
2022/07/20 02:58:49;;;;;;;32.03;25.40;;;26.10;53.00;;;;;;4974793;28;20203;-91
2022/07/20 03:01:15;;;;;;;33.30;26.50;;;26.10;53.00;;;;;;4974678;28;20962;-90
2022/07/20 03:03:42;;;;;;;33.37;27.27;;;26.10;53.90;;;;;;4975973;28;20199;-90
2022/07/20 03:06:09;;;;;;;32.20;25.50;;;26.10;53.20;;;;;;4974460;28;20514;-90
2022/07/20 03:08:34;;;;;;;35.03;23.70;;;26.10;53.10;;;;;;4974848;28;20438;-90
2022/07/20 03:11:00;;;;;;;33.03;24.90;;;26.10;53.00;;;;;;4975584;28;20513;-91
2022/07/20 03:13:26;;;;;;;31.47;24.30;;;26.00;53.00;;;;;;4996022;28;20195;-90
2022/07/20 03:15:52;;;;;;;34.50;26.40;;;26.00;52.90;;;;;;4994051;28;20186;-90
2022/07/20 03:18:18;;;;;;;29.60;23.57;;;26.00;52.80;;;;;;4995717;28;20183;-90
2022/07/20 03:20:44;;;;;;;28.53;23.60;;;25.90;52.50;;;;;;4993955;28;20425;-90
2022/07/20 03:23:10;;;;;;;36.37;26.10;;;25.90;52.60;;;;;;4994103;28;20969;-90
2022/07/20 03:25:35;;;;;;;31.03;20.60;;;26.00;52.80;;;;;;4994012;28;20780;-90
2022/07/20 03:28:01;;;;;;;28.70;22.73;;;25.90;52.30;;;;;;4993920;28;20209;-91
2022/07/20 03:30:28;;;;;;;24.40;21.50;;;25.90;52.20;;;;;;4994224;28;20175;-91
2022/07/20 03:32:54;;;;;;;27.90;21.83;;;25.90;52.40;;;;;;4994070;28;20612;-90
2022/07/20 03:35:20;;;;;;;27.13;23.50;;;25.90;52.70;;;;;;4995117;28;20438;-90
2022/07/20 03:37:45;;;;;;;32.33;23.27;;;25.90;52.70;;;;;;4992116;28;20179;-91
2022/07/20 03:40:12;;;;;;;30.87;22.27;;;25.90;52.60;;;;;;5007207;28;20438;-90
2022/07/20 03:42:37;;;;;;;26.53;21.50;;;25.90;52.30;;;;;;4993761;28;20200;-90
2022/07/20 03:45:04;;;;;;;30.50;21.27;;;25.90;52.40;;;;;;4993939;28;20434;-90
2022/07/20 03:47:29;;;;;;;26.23;21.77;;;25.80;52.50;;;;;;4993327;28;20212;-91
2022/07/20 03:49:55;;;;;;;29.53;20.83;;;25.90;52.30;;;;;;4993472;28;20417;-91
2022/07/20 03:52:22;;;;;;;28.63;22.77;;;25.80;52.60;;;;;;4994534;28;20182;-91
2022/07/20 03:54:47;;;;;;;32.77;21.87;;;25.80;52.80;;;;;;4994520;28;20854;-91
2022/07/20 03:57:13;;;;;;;29.90;22.73;;;25.80;53.60;;;;;;4993132;28;20429;-90
2022/07/20 03:59:40;;;;;;;27.10;22.03;;;25.80;53.20;;;;;;4993257;28;20183;-90
2022/07/20 04:02:06;;;;;;;27.10;21.53;;;25.80;53.40;;;;;;4992958;28;20513;-91
2022/07/20 04:04:32;;;;;;;25.20;22.37;;;25.80;53.70;;;;;;4994517;28;20478;-90
2022/07/20 04:06:57;;;;;;;26.47;21.63;;;25.80;53.70;;;;;;4976834;28;20217;-90
2022/07/20 04:12:09;;;;;;;31.03;22.50;;;25.80;53.70;;;;;;4994474;28;20466;-90
2022/07/20 04:14:35;;;;;;;24.10;21.57;;;25.70;53.90;;;;;;4993069;28;20448;-90
2022/07/20 04:17:01;;;;;;;25.20;20.63;;;25.70;53.80;;;;;;4976635;28;20558;-90
2022/07/20 04:19:27;;;;;;;22.60;19.73;;;25.60;54.00;;;;;;4992961;28;20561;-90
2022/07/20 04:21:58;;;;;;;27.47;19.53;;;25.60;53.80;;;;;;4992737;28;20511;-91
2022/07/20 04:24:25;;;;;;;27.83;19.40;;;25.60;53.40;;;;;;4993663;28;20216;-90
2022/07/20 04:26:51;;;;;;;23.30;17.97;;;25.60;53.50;;;;;;4992612;28;20456;-90
2022/07/20 04:29:16;;;;;;;25.13;19.70;;;25.50;53.60;;;;;;4992794;28;20418;-89
2022/07/20 04:31:42;;;;;;;24.53;17.30;;;25.50;54.00;;;;;;4992579;28;20503;-90
2022/07/20 04:34:08;;;;;;;24.80;19.20;;;25.60;53.90;;;;;;4992455;28;20197;-90
2022/07/20 04:36:34;;;;;;;22.23;18.17;;;25.60;53.40;;;;;;4976444;28;20333;-90
2022/07/20 04:38:59;;;;;;;17.73;15.80;;;25.70;53.40;;;;;;4992244;28;20222;-90
2022/07/20 04:41:25;;;;;;;17.43;15.50;;;25.80;53.30;;;;;;4992583;28;20183;-90
2022/07/20 04:43:51;;;;;;;18.60;16.20;;;25.80;52.60;;;;;;4992054;28;20566;-90
2022/07/20 04:46:16;;;;;;;23.73;16.80;;;25.90;52.30;;;;;;4991880;28;20190;-90
2022/07/20 04:48:42;;;;;;;21.37;14.57;;;25.90;51.60;;;;;;4993494;28;20573;-90
2022/07/20 04:51:08;;;;;;;22.67;15.43;;;25.90;51.50;;;;;;4992465;28;20593;-90
2022/07/20 04:53:33;;;;;;;18.90;14.40;;;25.90;51.10;;;;;;4992755;28;20214;-90
2022/07/20 04:55:59;;;;;;;21.30;16.23;;;26.00;51.60;;;;;;4993295;28;20189;-90
2022/07/20 04:58:25;;;;;;;22.27;13.50;;;26.10;51.30;;;;;;4990545;28;20230;-90
2022/07/20 05:00:50;;;;;;;14.53;12.90;;;26.10;50.80;;;;;;4974461;28;20214;-90
2022/07/20 05:03:16;;;;;;;16.63;13.77;;;26.10;50.70;;;;;;4975441;28;20182;-90
2022/07/20 05:05:42;;;;;;;17.77;13.57;;;26.20;50.30;;;;;;4975466;28;20187;-90
2022/07/20 05:08:08;;;;;;;18.93;15.50;;;26.20;50.30;;;;;;4986946;28;20969;-91
2022/07/20 05:10:35;;;;;;;17.83;13.20;;;26.20;50.00;;;;;;4973590;28;20184;-90
2022/07/20 05:13:01;;;;;;;20.20;13.57;;;26.20;50.10;;;;;;5008255;28;20423;-91
2022/07/20 05:15:27;;;;;;;16.37;13.77;;;26.30;50.10;;;;;;5016516;28;20534;-92
2022/07/20 05:17:53;;;;;;;19.80;13.90;;;26.30;50.40;;;;;;4996638;28;20206;-90
2022/07/20 05:20:19;;;;;;;20.93;15.43;;;26.40;50.10;;;;;;4993811;28;20414;-90
2022/07/20 05:22:45;;;;;;;19.03;14.17;;;26.50;50.00;;;;;;4994071;28;20955;-90
2022/07/20 05:25:11;;;;;;;12.47;9.13;;;26.60;49.60;;;;;;4993420;28;20807;-90
2022/07/20 05:27:36;;;;;;;15.03;11.60;;;26.80;51.60;;;;;;4993355;28;20241;-91
2022/07/20 05:30:03;;;;;;;24.00;18.17;;;26.90;51.40;;;;;;4994238;28;20429;-90
2022/07/20 05:32:29;;;;;;;15.97;14.30;;;27.30;50.10;;;;;;4994334;28;20175;-90
2022/07/20 05:34:55;;;;;;;25.97;16.20;;;27.50;49.10;;;;;;4993989;28;20492;-90
2022/07/20 05:37:22;;;;;;;16.80;15.00;;;27.70;49.10;;;;;;4993001;28;20419;-90
2022/07/20 05:39:48;;;;;;;21.60;14.83;;;28.00;47.70;;;;;;4996278;28;20174;-90
2022/07/20 05:42:13;;;;;;;20.10;16.10;;;28.20;46.80;;;;;;4996913;28;20419;-90
2022/07/20 05:44:39;;;;;;;20.23;16.20;;;28.20;46.60;;;;;;4996538;28;20438;-90
2022/07/20 05:47:09;;;;;;;21.63;15.97;;;28.40;46.30;;;;;;5007075;28;20195;-93
2022/07/20 05:49:36;;;;;;;17.00;14.70;;;28.60;45.60;;;;;;5012858;28;20171;-92
2022/07/20 05:52:03;;;;;;;17.47;15.63;;;28.50;45.50;;;;;;5016821;28;20450;-91
2022/07/20 05:54:28;;;;;;;20.50;16.27;;;28.60;45.10;;;;;;5002132;28;21120;-90
2022/07/20 05:56:54;;;;;;;20.03;16.03;;;28.10;46.70;;;;;;4993736;28;20666;-91
2022/07/20 05:59:20;;;;;;;21.63;17.27;;;28.00;47.30;;;;;;4973783;28;20523;-91
2022/07/20 06:01:45;;;;;;;19.03;16.50;;;27.80;47.50;;;;;;4974131;28;20184;-91
2022/07/20 06:04:12;;;;;;;20.50;17.43;;;27.60;48.00;;;;;;4973263;28;20305;-92
2022/07/20 06:06:39;;;;;;;27.70;18.07;;;27.50;48.80;;;;;;4973392;28;20226;-91
2022/07/20 06:09:06;;;;;;;19.80;17.87;;;27.30;49.10;;;;;;4973482;28;20607;-91
2022/07/20 06:11:33;;;;;;;21.60;18.30;;;27.20;49.90;;;;;;4982903;28;20875;-91
2022/07/20 06:13:59;;;;;;;20.97;17.93;;;27.10;50.60;;;;;;4981630;28;20504;-90
2022/07/20 06:16:25;;;;;;;19.60;16.50;;;27.10;50.90;;;;;;4996777;28;20427;-90
2022/07/20 06:18:51;;;;;;;21.03;16.43;;;27.10;50.80;;;;;;4997950;28;20419;-91
2022/07/20 06:21:17;;;;;;;19.17;16.37;;;27.20;50.60;;;;;;4994396;28;20432;-91
2022/07/20 06:23:42;;;;;;;19.20;15.30;;;27.40;49.40;;;;;;4994402;28;20195;-92
2022/07/20 06:26:08;;;;;;;18.83;16.83;;;27.40;49.50;;;;;;4996999;28;20179;-91
2022/07/20 06:28:35;;;;;;;20.50;13.93;;;27.60;49.20;;;;;;4995764;28;20734;-92
2022/07/20 06:31:00;;;;;;;21.60;15.53;;;27.80;48.70;;;;;;4994922;28;20275;-91
2022/07/20 06:33:26;;;;;;;17.37;14.37;;;27.90;47.90;;;;;;4992773;28;20529;-91
2022/07/20 06:35:52;;;;;;;18.20;14.30;;;28.10;47.60;;;;;;4993167;28;20429;-92
2022/07/20 06:38:18;;;;;;;17.00;13.27;;;28.20;47.50;;;;;;4994099;28;20282;-91
2022/07/20 06:40:44;;;;;;;20.33;15.00;;;28.60;46.30;;;;;;4993460;28;20512;-91
2022/07/20 06:43:10;;;;;;;15.93;14.33;;;28.60;45.40;;;;;;4993236;28;20477;-92
2022/07/20 06:45:36;;;;;;;17.27;13.70;;;28.30;46.10;;;;;;4994855;28;20934;-92
2022/07/20 06:48:03;;;;;;;17.10;14.43;;;28.30;45.70;;;;;;4999504;28;20512;-91
2022/07/20 06:50:28;;;;;;;23.63;15.13;;;28.10;46.20;;;;;;5001540;28;20434;-91
2022/07/20 06:52:55;;;;;;;15.60;12.87;;;28.00;47.00;;;;;;5016641;28;20438;-92
2022/07/20 06:55:21;;;;;;;23.00;14.57;;;28.00;47.30;;;;;;5006215;28;20222;-91
2022/07/20 06:57:46;;;;;;;16.80;13.63;;;28.00;47.30;;;;;;4998477;28;20433;-91
2022/07/20 07:00:13;;;;;;;14.87;13.23;;;28.00;47.20;;;;;;4995931;28;20190;-91
2022/07/20 07:02:39;;;;;;;25.30;14.40;;;28.10;47.50;;;;;;4998194;28;20194;-91
2022/07/20 07:05:06;;;;;;;15.40;13.30;;;27.90;47.00;;;;;;4996335;28;20473;-91
2022/07/20 07:07:31;;;;;;;18.03;13.47;;;28.00;47.60;;;;;;4998043;28;20461;-91
2022/07/20 07:09:57;;;;;;;19.97;12.83;;;27.70;48.00;;;;;;4997004;28;20419;-92
2022/07/20 07:12:23;;;;;;;14.43;12.93;;;27.50;47.60;;;;;;4995997;28;20190;-91
2022/07/20 07:14:49;;;;;;;19.33;13.40;;;27.70;47.40;;;;;;4996050;28;20206;-91
2022/07/20 07:17:16;;;;;;;12.00;10.80;;;28.00;46.60;;;;;;4996358;28;20518;-91
2022/07/20 07:19:42;;;;;;;15.23;11.57;;;28.00;47.30;;;;;;4997345;28;20179;-91
2022/07/20 07:22:09;;;;;;;15.00;11.47;;;28.00;47.20;;;;;;4996562;28;20430;-90
2022/07/20 07:24:35;;;;;;;16.07;10.83;;;28.10;46.90;;;;;;4997981;28;20462;-91
2022/07/20 07:27:01;;;;;;;14.20;11.20;;;28.30;46.00;;;;;;4996825;28;20549;-91
2022/07/20 07:29:28;;;;;;;18.67;9.40;;;28.30;45.40;;;;;;4980125;28;20972;-91
2022/07/20 07:31:58;;;;;;;12.37;10.80;;;28.20;44.70;;;;;;4995612;28;20428;-91
2022/07/20 07:34:28;;;;;;;15.43;10.47;;;28.10;44.70;;;;;;4995819;28;20469;-92
2022/07/20 07:36:54;;;;;;;18.77;10.87;;;28.00;44.70;;;;;;4996634;28;20415;-92
2022/07/20 07:39:20;;;;;;;11.60;10.00;;;27.70;45.10;;;;;;4995897;28;20516;-91
2022/07/20 07:41:46;;;;;;;11.13;10.03;;;27.80;45.20;;;;;;4995835;28;20456;-91
2022/07/20 07:44:11;;;;;;;13.63;9.00;;;27.70;45.90;;;;;;4996005;28;20214;-91
2022/07/20 07:46:37;;;;;;;10.67;8.63;;;27.60;45.20;;;;;;4995425;28;20216;-91
2022/07/20 07:49:04;;;;;;;18.07;9.80;;;27.60;45.50;;;;;;4995592;28;20182;-90
2022/07/20 07:51:30;;;;;;;11.73;9.60;;;27.50;45.80;;;;;;4996739;28;20745;-92
2022/07/20 07:53:56;;;;;;;15.73;9.30;;;27.40;45.90;;;;;;4994904;28;20449;-91
2022/07/20 07:56:22;;;;;;;12.63;10.10;;;27.30;45.70;;;;;;4994546;28;20203;-91
2022/07/20 07:58:48;;;;;;;13.53;9.77;;;27.30;46.00;;;;;;4990424;28;20419;-91
2022/07/20 08:01:14;;;;;;;11.90;10.60;;;26.90;45.50;;;;;;4975757;28;20429;-91
2022/07/20 08:03:40;;;;;;;17.50;10.50;;;26.70;46.40;;;;;;4975874;28;20200;-91
2022/07/20 08:06:06;;;;;;;13.90;11.07;;;26.30;48.20;;;;;;4976368;28;20648;-91
2022/07/20 08:08:32;;;;;;;11.50;8.87;;;26.10;50.00;;;;;;4976719;28;20518;-91
2022/07/20 08:10:58;;;;;;;16.80;10.10;;;26.10;51.40;;;;;;4976703;28;20176;-91
2022/07/20 08:13:27;;;;;;;12.40;9.30;;;26.50;52.20;;;;;;4976176;28;20510;-91
2022/07/20 08:15:53;;;;;;;12.27;9.80;;;26.70;52.40;;;;;;4976707;28;20418;-91
2022/07/20 08:18:19;;;;;;;17.37;10.67;;;27.00;52.50;;;;;;4976383;28;20424;-91
2022/07/20 08:20:45;;;;;;;11.47;9.60;;;27.10;52.20;;;;;;4976307;28;20922;-91
2022/07/20 08:23:10;;;;;;;14.80;9.57;;;27.60;49.80;;;;;;4978029;28;20276;-91
2022/07/20 08:25:36;;;;;;;12.73;10.20;;;28.10;47.80;;;;;;4976736;28;20415;-91
2022/07/20 08:28:12;;;;;;;16.37;9.67;;;28.30;46.90;;;;;;4977867;28;20295;-91
2022/07/20 08:30:40;;;;;;;12.63;9.43;;;28.60;46.10;;;;;;4980940;28;20260;-92
2022/07/20 08:33:07;;;;;;;15.17;9.20;;;28.70;46.30;;;;;;4981748;28;20449;-91
2022/07/20 08:35:33;;;;;;;11.73;10.53;;;28.60;47.70;;;;;;4976726;28;20419;-92
2022/07/20 08:37:59;;;;;;;14.93;10.00;;;28.60;47.10;;;;;;4975990;28;20419;-92
2022/07/20 08:40:26;;;;;;;12.40;9.40;;;28.80;46.20;;;;;;4977206;28;20806;-92
2022/07/20 08:42:52;;;;;;;13.07;9.40;;;28.80;45.20;;;;;;4975603;28;20660;-92
2022/07/20 08:45:17;;;;;;;11.30;9.30;;;28.70;46.00;;;;;;4976371;28;20447;-93
2022/07/20 08:47:45;;;;;;;12.53;9.70;;;28.40;46.90;;;;;;4981525;28;20215;-92
2022/07/20 08:50:11;;;;;;;14.93;9.67;;;28.20;47.20;;;;;;4975434;28;20184;-91
2022/07/20 08:52:37;;;;;;;12.93;10.07;;;28.10;50.20;;;;;;4977620;28;20803;-92
2022/07/20 08:55:04;;;;;;;14.43;9.70;;;27.80;52.60;;;;;;4976950;28;20466;-92
2022/07/20 08:57:31;;;;;;;14.53;9.97;;;27.50;54.30;;;;;;4974464;28;20920;-91
2022/07/20 08:59:56;;;;;;;14.33;10.00;;;27.30;55.00;;;;;;4974802;28;20434;-91
2022/07/20 09:02:22;;;;;;;13.30;10.67;;;27.20;55.50;;;;;;4975718;28;20637;-91
2022/07/20 09:04:49;;;;;;;10.43;9.30;;;27.20;55.60;;;;;;4976193;28;20234;-92
2022/07/20 09:07:15;;;;;;;10.93;9.53;;;27.50;54.20;;;;;;4977065;28;20361;-91
2022/07/20 09:09:41;;;;;;;12.80;9.47;;;27.50;55.60;;;;;;4977610;28;20452;-91
2022/07/20 09:12:07;;;;;;;11.70;9.07;;;27.50;55.80;;;;;;4979354;28;20543;-91
2022/07/20 09:14:42;;;;;;;13.60;9.60;;;27.50;55.10;;;;;;4964035;28;20443;-92
2022/07/20 09:17:23;;;;;;;14.80;9.67;;;27.80;52.50;;;;;;4982494;28;20426;-92
2022/07/20 09:20:08;;;;;;;15.20;9.03;;;28.10;50.90;;;;;;4978545;28;20417;-91
2022/07/20 09:22:38;;;;;;;10.43;8.50;;;28.00;52.10;;;;;;4973769;28;20801;-91
2022/07/20 09:25:15;;;;;;;10.27;9.17;;;27.70;52.20;;;;;;4973705;28;20447;-91
2022/07/20 09:27:42;;;;;;;10.63;8.50;;;27.60;52.50;;;;;;4974012;28;20468;-91
2022/07/20 09:30:14;;;;;;;11.67;10.03;;;27.70;52.00;;;;;;4974228;28;20502;-91
2022/07/20 09:33:02;;;;;;;11.83;9.40;;;28.00;50.00;;;;;;4974122;28;20430;-91
2022/07/20 09:35:32;;;;;;;12.20;8.83;;;28.20;48.70;;;;;;4975547;28;20415;-91
2022/07/20 09:38:03;;;;;;;11.87;8.33;;;28.20;49.80;;;;;;4974199;28;20423;-92
2022/07/20 09:40:42;;;;;;;9.83;8.33;;;28.40;49.80;;;;;;4974026;28;20458;-91
2022/07/20 09:43:24;;;;;;;12.47;8.97;;;28.40;50.00;;;;;;4973656;28;20443;-91
2022/07/20 09:45:49;;;;;;;10.63;9.53;;;28.40;49.70;;;;;;4973895;28;20939;-91
2022/07/20 09:48:20;;;;;;;11.50;8.50;;;28.20;50.20;;;;;;4958377;28;20466;-91
2022/07/20 09:50:45;;;;;;;18.50;10.90;;;28.30;49.70;;;;;;4973923;28;20183;-91
2022/07/20 09:53:13;;;;;;;10.70;8.60;;;28.40;49.50;;;;;;4973184;28;20534;-91
2022/07/20 09:55:40;;;;;;;14.47;11.73;;;28.30;49.30;;;;;;4973763;28;20167;-91
2022/07/20 09:58:06;;;;;;;11.43;10.20;;;27.80;54.00;;;;;;4973755;28;20438;-92
2022/07/20 10:00:35;;;;;;;21.13;10.77;;;27.20;56.00;;;;;;4974218;28;20426;-90
2022/07/20 10:03:03;;;;;;;15.60;10.77;;;27.00;57.50;;;;;;4961315;28;20432;-91
2022/07/20 10:05:36;;;;;;;20.00;11.20;;;27.00;58.50;;;;;;4973575;28;20445;-91
2022/07/20 10:08:06;;;;;;;18.40;12.37;;;26.50;63.50;;;;;;4988458;28;20470;-91
2022/07/20 10:10:33;;;;;;;12.87;10.03;;;26.30;62.10;;;;;;4979713;28;20442;-91
2022/07/20 10:13:01;;;;;;;11.43;10.17;;;26.30;60.90;;;;;;4973019;28;20426;-91
2022/07/20 10:15:40;;;;;;;15.37;10.80;;;26.20;61.60;;;;;;4973745;28;20438;-92
2022/07/20 10:18:10;;;;;;;12.53;10.00;;;26.10;62.40;;;;;;4973805;28;20418;-92
2022/07/20 10:20:37;;;;;;;12.23;9.80;;;26.10;64.90;;;;;;4976278;28;20825;-91
2022/07/20 10:23:15;;;;;;;13.70;10.53;;;26.00;65.80;;;;;;4977327;28;20432;-91
2022/07/20 10:25:42;;;;;;;13.57;10.60;;;26.10;65.70;;;;;;4977057;28;21038;-91
2022/07/20 10:28:23;;;;;;;15.90;11.00;;;26.20;64.50;;;;;;4985530;28;20463;-91
2022/07/20 10:31:16;;;;;;;14.77;11.50;;;26.40;63.10;;;;;;4980459;28;20434;-91
2022/07/20 10:33:42;;;;;;;11.17;9.50;;;26.80;61.90;;;;;;4977195;28;20797;-92
2022/07/20 10:39:58;;;;;;;11.93;10.37;;;27.70;57.40;;;;;;4979046;28;20398;-92
2022/07/20 10:42:30;;;;;;;13.87;11.20;;;27.70;56.80;;;;;;4976490;28;20500;-91
2022/07/20 10:45:27;;;;;;;14.60;9.90;;;27.70;55.50;;;;;;4960438;28;21040;-92
2022/07/20 10:48:14;;;;;;;13.03;9.83;;;27.70;55.30;;;;;;4971696;28;20462;-91
2022/07/20 10:50:41;;;;;;;11.33;10.23;;;27.90;55.30;;;;;;4982884;28;20431;-92
2022/07/20 10:53:10;;;;;;;11.83;10.30;;;27.70;55.30;;;;;;4987513;28;20425;-91
2022/07/20 10:55:36;;;;;;;15.50;10.37;;;27.50;54.40;;;;;;4989359;28;20760;-92
2022/07/20 10:58:04;;;;;;;11.50;9.47;;;27.40;55.10;;;;;;4989029;28;20551;-91
2022/07/20 11:00:36;;;;;;;15.80;8.40;;;27.70;54.60;;;;;;4983237;28;20180;-92
2022/07/20 11:03:15;;;;;;;11.10;9.90;;;28.10;54.10;;;;;;4978480;28;20422;-91
2022/07/20 11:05:41;;;;;;;10.73;9.60;;;28.10;53.50;;;;;;4977536;28;20879;-91
2022/07/20 11:08:09;;;;;;;10.20;8.77;;;28.40;51.00;;;;;;4977129;28;20486;-91
2022/07/20 11:10:37;;;;;;;9.10;7.83;;;28.40;48.60;;;;;;4961110;28;20417;-91
2022/07/20 11:13:05;;;;;;;8.80;8.00;;;27.90;49.90;;;;;;4976631;28;20427;-92
2022/07/20 11:15:38;;;;;;;9.70;8.47;;;27.70;51.00;;;;;;4976706;28;20420;-91
2022/07/20 11:18:06;;;;;;;9.63;8.20;;;27.70;51.60;;;;;;4976859;28;20986;-91
2022/07/20 11:20:33;;;;;;;9.53;7.97;;;27.70;51.70;;;;;;4979052;28;20430;-91
2022/07/20 11:23:01;;;;;;;11.97;8.77;;;27.70;51.30;;;;;;4977077;28;20908;-91
2022/07/20 11:25:43;;;;;;;10.87;8.93;;;27.80;50.90;;;;;;4960844;28;20469;-91
2022/07/20 11:28:11;;;;;;;10.20;9.10;;;28.20;50.70;;;;;;4977124;28;20499;-91
2022/07/20 11:30:37;;;;;;;9.87;8.47;;;28.70;48.50;;;;;;4976646;28;20468;-91
2022/07/20 11:33:03;;;;;;;12.67;9.67;;;28.50;49.30;;;;;;4978113;28;20465;-91
2022/07/20 11:35:29;;;;;;;11.30;8.13;;;28.30;49.60;;;;;;4981260;28;20438;-91
2022/07/20 11:37:55;;;;;;;8.77;7.87;;;28.30;49.20;;;;;;4961605;28;20986;-91
2022/07/20 11:40:22;;;;;;;8.83;7.93;;;28.60;48.30;;;;;;4977228;28;20455;-91
2022/07/20 11:43:13;;;;;;;10.33;8.97;;;28.80;49.00;;;;;;4985407;28;20168;-91
2022/07/20 11:45:39;;;;;;;11.90;8.40;;;28.50;48.50;;;;;;4995563;28;20431;-92
2022/07/20 11:48:19;;;;;;;9.57;8.40;;;28.50;48.70;;;;;;4998137;28;20466;-91
2022/07/20 11:50:45;;;;;;;10.33;8.90;;;28.90;47.30;;;;;;4993896;28;20482;-91
2022/07/20 11:53:30;;;;;;;11.50;8.73;;;29.30;46.60;;;;;;4978489;28;20446;-91
2022/07/20 11:55:58;;;;;;;10.10;8.50;;;29.20;45.90;;;;;;4984647;28;20531;-92
2022/07/20 11:58:32;;;;;;;9.20;7.57;;;29.40;44.10;;;;;;4977087;28;20424;-91
2022/07/20 12:01:00;;;;;;;9.53;7.47;;;28.90;44.90;;;;;;4976397;28;20399;-91
2022/07/20 12:03:32;;;;;;;9.37;8.53;;;28.60;46.10;;;;;;4976095;28;20443;-91
2022/07/20 12:06:21;;;;;;;11.10;9.07;;;28.50;47.00;;;;;;4975529;28;20922;-91
2022/07/20 12:09:09;;;;;;;8.90;8.10;;;28.50;47.00;;;;;;4975175;28;20986;-92
2022/07/20 12:11:51;;;;;;;10.73;9.40;;;28.60;46.70;;;;;;4976986;28;20434;-92
2022/07/20 12:14:29;;;;;;;12.27;9.67;;;28.70;45.50;;;;;;4975056;28;20444;-92
2022/07/20 12:16:55;;;;;;;11.03;9.90;;;28.60;46.50;;;;;;4974481;28;20477;-91
2022/07/20 12:19:24;;;;;;;12.43;9.63;;;28.20;46.80;;;;;;4974539;28;20423;-91
2022/07/20 12:21:50;;;;;;;10.40;9.30;;;28.10;47.80;;;;;;4975831;28;20427;-91
2022/07/20 12:24:16;;;;;;;11.20;9.03;;;28.50;46.70;;;;;;4974468;28;20442;-92
2022/07/20 12:26:43;;;;;;;12.03;10.00;;;28.90;46.10;;;;;;4977057;28;20183;-92
2022/07/20 12:29:25;;;;;;;14.63;11.00;;;29.20;45.80;;;;;;4975300;28;20411;-91
2022/07/20 12:31:58;;;;;;;12.00;10.73;;;29.10;46.00;;;;;;4978312;28;20442;-92
2022/07/20 12:34:24;;;;;;;11.50;10.20;;;29.00;45.30;;;;;;4976200;28;20435;-91
2022/07/20 12:36:50;;;;;;;16.90;10.07;;;28.90;45.70;;;;;;4974107;28;20393;-91
2022/07/20 12:39:43;;;;;;;13.93;11.70;;;29.40;45.40;;;;;;4974008;28;20435;-91
2022/07/20 12:42:13;;;;;;;11.17;9.97;;;29.40;45.40;;;;;;4974932;28;20449;-91